Time;durP1;ratioP1;P1;durP2;ratioP2;P2;SDS_P1;SDS_P2;PMS_P1;PMS_P2;Temp;Humidity;BMP_temperature;BMP_pressure;BME280_temperature;BME280_humidity;BME280_pressure;Samples;Min_cycle;Max_cycle;Signal;HPM_P1;HPM_P2
2021/12/17 00:05:03;;;;;;;63.97;37.28;;;;;;;5.66;100.00;103973.16;5113170;28;20095;-84
2021/12/17 00:07:31;;;;;;;60.58;37.10;;;;;;;5.71;100.00;103986.31;5113847;28;20521;-83
2021/12/17 00:10:00;;;;;;;59.47;36.08;;;;;;;5.71;100.00;103984.59;5112718;28;20032;-84
2021/12/17 00:12:27;;;;;;;61.90;37.63;;;;;;;5.73;100.00;103985.56;5103691;28;20356;-83
2021/12/17 00:14:53;;;;;;;63.25;37.65;;;;;;;5.74;100.00;103981.28;5100590;28;20024;-84
2021/12/17 00:17:25;;;;;;;65.68;36.10;;;;;;;5.74;100.00;103984.75;5092802;28;20103;-84
2021/12/17 00:20:19;;;;;;;66.25;38.45;;;;;;;5.73;100.00;103972.63;5093262;28;20028;-84
2021/12/17 00:50:24;;;;;;;64.05;38.58;;;;;;;5.87;100.00;103966.38;5112676;28;20028;-84
2021/12/17 00:52:34;;;;;;;66.13;39.47;;;;;;;5.90;100.00;103972.53;5111812;28;20035;-83
2021/12/17 00:54:59;;;;;;;60.15;37.97;;;;;;;5.89;100.00;103965.59;5112801;28;20016;-83
2021/12/17 00:57:35;;;;;;;62.97;38.67;;;;;;;5.90;100.00;103960.47;5111378;28;20027;-84
2021/12/17 01:00:05;;;;;;;59.00;37.00;;;;;;;5.90;100.00;103967.34;5111997;28;20048;-84
2021/12/17 01:02:34;;;;;;;62.15;38.80;;;;;;;5.92;100.00;103963.09;5113069;28;20482;-83
2021/12/17 01:05:10;;;;;;;65.40;40.17;;;;;;;5.93;100.00;103963.22;5112727;28;20020;-84
2021/12/17 01:07:40;;;;;;;68.15;40.15;;;;;;;5.90;100.00;103950.09;5111908;28;20110;-84
2021/12/17 01:10:08;;;;;;;68.97;40.10;;;;;;;5.96;100.00;103960.78;5112874;28;20032;-83
2021/12/17 01:12:34;;;;;;;68.55;41.13;;;;;;;5.99;100.00;103963.50;5110309;27;20035;-83
2021/12/17 01:15:00;;;;;;;67.18;39.33;;;;;;;5.98;100.00;103956.53;5111767;28;20079;-84
2021/12/17 01:17:27;;;;;;;62.85;37.83;;;;;;;5.98;100.00;103951.34;5112625;28;20019;-84
2021/12/17 01:22:55;;;;;;;63.22;38.55;;;;;;;6.00;100.00;103941.97;5112638;28;20031;-83
2021/12/17 01:36:21;;;;;;;59.92;34.92;;;;;;;6.03;100.00;103943.81;5112475;28;20041;-84
2021/12/17 01:44:07;;;;;;;63.70;38.65;;;;;;;6.08;100.00;103952.66;5105477;28;20043;-84
2021/12/17 01:46:36;;;;;;;60.35;35.97;;;;;;;6.06;100.00;103950.00;5112377;28;20023;-84
2021/12/17 01:59:51;;;;;;;67.45;39.22;;;;;;;6.14;100.00;103944.28;5109711;28;20050;-84
2021/12/17 02:02:16;;;;;;;64.78;36.45;;;;;;;6.14;100.00;103947.75;5111466;28;20043;-84
2021/12/17 02:04:43;;;;;;;66.40;37.50;;;;;;;6.16;100.00;103948.72;5111682;28;20054;-84
2021/12/17 02:07:08;;;;;;;68.57;39.00;;;;;;;6.16;100.00;103946.13;5112244;28;20161;-84
2021/12/17 02:12:38;;;;;;;63.17;35.88;;;;;;;6.19;100.00;103948.84;5112087;28;20442;-84
2021/12/17 02:31:54;;;;;;;69.57;37.25;;;;;;;6.22;100.00;103951.59;5094191;28;20028;-84
2021/12/17 02:35:28;;;;;;;73.13;38.53;;;;;;;6.25;100.00;103951.72;5095693;28;20032;-84
2021/12/17 02:37:19;;;;;;;80.57;38.58;;;;;;;6.24;100.00;103949.94;5082931;28;20121;-84
2021/12/17 02:47:44;;;;;;;;;;;;;;;6.35;100.00;103958.19;5115746;28;20042;-84
2021/12/17 02:50:11;;;;;;;96.95;38.83;;;;;;;6.35;100.00;103949.53;5115617;28;20290;-84
2021/12/17 02:52:38;;;;;;;98.70;38.45;;;;;;;6.35;100.00;103953.00;5112221;28;20024;-84
2021/12/17 02:55:07;;;;;;;106.82;40.10;;;;;;;6.37;100.00;103947.88;5115593;28;20039;-84
2021/12/17 02:57:34;;;;;;;101.60;38.05;;;;;;;6.37;100.00;103943.56;5113515;28;20031;-84
2021/12/17 03:00:01;;;;;;;117.95;39.97;;;;;;;6.36;100.00;103940.94;5093206;28;20027;-84
2021/12/17 03:02:30;;;;;;;113.47;42.10;;;;;;;6.41;100.00;103949.78;5094214;28;20081;-84
2021/12/17 03:04:56;;;;;;;107.50;41.15;;;;;;;6.41;100.00;103947.19;5094558;28;20040;-84
2021/12/17 03:07:21;;;;;;;107.75;39.85;;;;;;;6.41;100.00;103954.97;5101446;28;20062;-84
2021/12/17 03:10:03;;;;;;;109.72;39.13;;;;;;;6.42;100.00;103947.28;5114799;28;20110;-84
2021/12/17 03:12:38;;;;;;;103.75;37.72;;;;;;;6.42;100.00;103949.84;5114392;28;20020;-84
2021/12/17 03:25:46;;;;;;;;;;;;;;;6.48;100.00;103962.22;5114420;28;20190;-84
2021/12/17 03:28:11;;;;;;;106.63;35.90;;;;;;;6.44;100.00;103962.88;5111928;28;20010;-84
2021/12/17 03:30:37;;;;;;;118.43;40.88;;;;;;;6.39;100.00;103948.84;5114391;28;20094;-84
2021/12/17 03:33:02;;;;;;;123.93;42.42;;;;;;;6.47;100.00;103963.88;5114479;28;20458;-84
2021/12/17 03:35:27;;;;;;;129.35;40.47;;;;;;;6.49;100.00;103961.38;5112634;28;20068;-83
2021/12/17 03:37:53;;;;;;;133.00;41.28;;;;;;;6.49;100.00;103966.56;5114345;28;20024;-84
2021/12/17 03:40:20;;;;;;;131.23;39.80;;;;;;;6.47;100.00;103957.81;5112206;28;20398;-84
2021/12/17 03:42:48;;;;;;;132.77;40.60;;;;;;;6.49;100.00;103967.44;5113109;28;20461;-84
2021/12/17 03:45:17;;;;;;;141.13;40.03;;;;;;;6.49;100.00;103962.25;5114503;28;20027;-84
2021/12/17 03:47:42;;;;;;;138.90;40.58;;;;;;;6.48;100.00;103954.44;5113264;28;20038;-84
2021/12/17 03:50:08;;;;;;;152.82;40.92;;;;;;;6.51;100.00;103960.63;5114708;28;20027;-84
2021/12/17 03:52:33;;;;;;;158.52;40.45;;;;;;;6.52;100.00;103956.31;5114148;28;20467;-84
2021/12/17 03:54:59;;;;;;;145.93;39.65;;;;;;;6.49;100.00;103957.06;5112216;28;20467;-84
2021/12/17 03:57:24;;;;;;;158.65;38.13;;;;;;;6.51;100.00;103955.44;5113995;28;20036;-84
2021/12/17 03:59:50;;;;;;;154.02;38.85;;;;;;;6.49;100.00;103951.88;5113971;28;20119;-84
2021/12/17 04:02:16;;;;;;;195.52;41.60;;;;;;;6.51;100.00;103964.94;5113607;28;20039;-84
2021/12/17 04:04:42;;;;;;;165.60;39.67;;;;;;;6.52;100.00;103970.16;5113699;28;20065;-84
2021/12/17 04:07:07;;;;;;;171.10;39.17;;;;;;;6.50;100.00;103963.13;5113969;28;20034;-84
2021/12/17 04:09:33;;;;;;;176.45;40.65;;;;;;;6.51;100.00;103964.94;5111772;28;20027;-84
2021/12/17 04:12:00;;;;;;;185.52;40.13;;;;;;;6.47;100.00;103950.03;5099036;28;20027;-83
2021/12/17 04:14:34;;;;;;;177.38;38.97;;;;;;;6.49;100.00;103954.47;5093509;28;20142;-84
2021/12/17 04:17:03;;;;;;;178.80;38.58;;;;;;;6.48;100.00;103955.31;5092545;28;20023;-84
2021/12/17 04:19:29;;;;;;;170.70;38.45;;;;;;;6.49;100.00;103945.81;5093121;28;20042;-83
2021/12/17 04:21:54;;;;;;;177.52;40.90;;;;;;;6.49;100.00;103951.00;5093129;28;20024;-84
2021/12/17 04:24:19;;;;;;;181.27;38.72;;;;;;;6.46;100.00;103953.47;5091810;28;20084;-83
2021/12/17 04:26:45;;;;;;;202.25;41.33;;;;;;;6.49;100.00;103957.06;5092623;28;20076;-83
2021/12/17 04:29:10;;;;;;;184.40;41.20;;;;;;;6.49;100.00;103953.59;5093304;28;20433;-84
2021/12/17 04:31:35;;;;;;;203.25;42.45;;;;;;;6.48;100.00;103952.72;5092389;28;20031;-84
2021/12/17 04:34:01;;;;;;;187.40;42.13;;;;;;;6.48;100.00;103952.72;5092741;28;20024;-84
2021/12/17 04:36:30;;;;;;;191.80;42.15;;;;;;;6.48;100.00;103946.66;5092856;28;20032;-84
2021/12/17 04:38:57;;;;;;;195.25;42.25;;;;;;;6.42;100.00;103939.50;5091343;28;20117;-85
2021/12/17 04:44:22;;;;;;;206.85;42.60;;;;;;;6.47;100.00;103950.94;5092097;28;20036;-84
2021/12/17 04:46:57;;;;;;;203.10;42.83;;;;;;;6.47;100.00;103950.03;5108626;28;20039;-84
2021/12/17 04:57:54;;;;;;;;;;;;;;;6.50;100.00;103955.38;5113076;28;20038;-84
2021/12/17 05:00:23;;;;;;;188.18;41.72;;;;;;;6.49;100.00;103953.59;5112142;28;19926;-84
2021/12/17 05:02:53;;;;;;;215.80;43.90;;;;;;;6.47;100.00;103953.50;5112634;28;20066;-84
2021/12/17 05:05:20;;;;;;;216.10;42.45;;;;;;;6.47;100.00;103947.44;5112203;28;20084;-84
2021/12/17 05:07:52;;;;;;;220.63;43.42;;;;;;;6.49;100.00;103956.19;5112477;28;20393;-84
2021/12/17 05:18:17;;;;;;;;;;;;;;;6.50;100.00;103964.03;5113081;28;20096;-84
2021/12/17 05:20:50;;;;;;;225.90;43.92;;;;;;;6.49;100.00;103957.06;5111491;28;20381;-84
2021/12/17 05:23:23;;;;;;;207.20;44.63;;;;;;;6.46;100.00;103948.28;5112785;28;20031;-84
2021/12/17 05:25:49;;;;;;;201.60;42.47;;;;;;;6.49;100.00;103953.59;5111985;28;20037;-84
2021/12/17 05:28:14;;;;;;;216.32;41.70;;;;;;;6.48;100.00;103955.31;5112121;28;20602;-84
2021/12/17 05:30:45;;;;;;;184.95;41.17;;;;;;;6.49;100.00;103966.56;5096135;28;20060;-84
2021/12/17 05:33:11;;;;;;;212.20;43.53;;;;;;;6.48;100.00;103959.63;5111158;28;20092;-84
2021/12/17 05:35:36;;;;;;;209.82;42.88;;;;;;;6.49;100.00;103962.25;5112049;28;20019;-84
2021/12/17 05:38:01;;;;;;;209.20;41.90;;;;;;;6.50;100.00;103961.44;5112532;28;20024;-85
2021/12/17 05:40:27;;;;;;;202.25;42.20;;;;;;;6.48;100.00;103960.50;5111597;28;20024;-85
2021/12/17 05:42:56;;;;;;;203.45;40.55;;;;;;;6.52;100.00;103966.69;5112126;28;20114;-84
2021/12/17 05:45:32;;;;;;;201.50;40.45;;;;;;;6.52;100.00;103967.56;5111076;28;20034;-85
2021/12/17 05:48:06;;;;;;;223.30;42.53;;;;;;;6.52;100.00;103969.28;5111439;28;20020;-84
2021/12/17 05:50:32;;;;;;;204.93;40.78;;;;;;;6.49;100.00;103959.66;5112398;28;20027;-84
2021/12/17 05:52:57;;;;;;;189.95;40.60;;;;;;;6.53;100.00;103964.16;5110016;28;20031;-84
2021/12/17 05:55:23;;;;;;;214.45;40.55;;;;;;;6.54;100.00;103965.94;5111546;28;20028;-84
2021/12/17 05:57:48;;;;;;;209.48;41.55;;;;;;;6.53;100.00;103958.09;5112785;28;20023;-85
2021/12/17 06:00:14;;;;;;;193.48;38.05;;;;;;;6.53;100.00;103955.50;5116194;28;20549;-84
2021/12/17 06:02:39;;;;;;;192.48;39.33;;;;;;;6.54;100.00;103967.66;5115400;28;20031;-84
2021/12/17 06:05:05;;;;;;;198.15;39.05;;;;;;;6.52;100.00;103962.41;5116359;28;20028;-85
2021/12/17 06:07:30;;;;;;;180.75;38.08;;;;;;;6.52;100.00;103962.41;5115096;28;20085;-84
2021/12/17 06:10:02;;;;;;;177.57;36.50;;;;;;;6.55;100.00;103972.91;5115209;28;20180;-85
2021/12/17 06:12:28;;;;;;;184.45;37.72;;;;;;;6.54;100.00;103967.66;5116066;28;20027;-84
2021/12/17 06:14:53;;;;;;;170.93;35.08;;;;;;;6.54;100.00;103975.44;5116000;28;20031;-85
2021/12/17 06:17:18;;;;;;;174.43;36.38;;;;;;;6.56;100.00;103976.38;5115592;28;20024;-84
2021/12/17 06:19:44;;;;;;;182.68;36.05;;;;;;;6.57;100.00;103981.63;5115690;28;20031;-85
2021/12/17 06:22:09;;;;;;;166.60;35.03;;;;;;;6.56;100.00;103977.25;5104931;28;20066;-85
2021/12/17 06:24:34;;;;;;;178.23;33.42;;;;;;;6.56;100.00;103973.78;5094650;28;20464;-85
2021/12/17 06:27:00;;;;;;;160.30;32.08;;;;;;;6.54;100.00;103980.63;5095161;28;20057;-85
2021/12/17 06:29:25;;;;;;;155.02;32.40;;;;;;;6.55;100.00;103992.75;5094603;28;20364;-85
2021/12/17 06:31:50;;;;;;;140.15;31.00;;;;;;;6.56;100.00;103995.41;5095345;28;20056;-85
2021/12/17 06:34:16;;;;;;;166.63;31.50;;;;;;;6.55;100.00;103988.44;5095627;28;20028;-84
2021/12/17 06:36:41;;;;;;;153.70;30.83;;;;;;;6.55;100.00;103985.84;5101748;28;20023;-86
2021/12/17 06:39:06;;;;;;;145.10;30.33;;;;;;;6.53;100.00;103990.06;5115545;28;20390;-85
2021/12/17 06:41:31;;;;;;;136.85;29.13;;;;;;;6.56;100.00;103991.91;5115524;28;20062;-85
2021/12/17 06:43:58;;;;;;;131.60;27.73;;;;;;;6.56;100.00;103998.00;5114497;28;20092;-85
2021/12/17 06:46:33;;;;;;;139.25;29.27;;;;;;;6.51;100.00;103985.66;5113980;28;20110;-85
2021/12/17 06:49:17;;;;;;;125.47;26.77;;;;;;;6.55;100.00;103992.75;5115380;28;20069;-85
2021/12/17 06:54:52;;;;;;;116.13;25.23;;;;;;;6.49;100.00;103976.94;5115265;28;20100;-85
2021/12/17 07:08:50;;;;;;;107.60;24.05;;;;;;;6.50;100.00;103994.25;5094196;28;20120;-85
2021/12/17 07:21:31;;;;;;;101.43;21.85;;;;;;;6.51;100.00;103996.91;5115304;28;20309;-85
2021/12/17 07:34:44;;;;;;;103.32;21.65;;;;;;;6.48;100.00;103982.94;5114372;28;20422;-85
2021/12/17 07:39:38;;;;;;;105.93;22.98;;;;;;;6.48;100.00;103982.94;5112031;28;20395;-85
2021/12/17 07:42:04;;;;;;;107.80;22.83;;;;;;;6.47;100.00;103982.03;5113675;28;20026;-85
2021/12/17 07:44:29;;;;;;;98.85;21.58;;;;;;;6.48;100.00;103977.75;5112352;28;20040;-85
2021/12/17 07:46:55;;;;;;;100.22;21.70;;;;;;;6.49;100.00;103985.59;5113405;28;20020;-85
2021/12/17 07:49:20;;;;;;;99.20;22.45;;;;;;;6.51;100.00;103988.25;5114489;28;20429;-85
2021/12/17 07:51:45;;;;;;;112.10;23.35;;;;;;;6.45;100.00;103967.25;5113782;28;20166;-85
2021/12/17 07:54:11;;;;;;;94.57;22.00;;;;;;;6.52;100.00;103979.66;5113548;28;20024;-86
2021/12/17 07:56:39;;;;;;;103.97;22.73;;;;;;;6.46;100.00;103967.31;5113667;28;20024;-85
2021/12/17 07:59:10;;;;;;;102.43;22.58;;;;;;;6.53;100.00;103978.81;5101387;28;20118;-86
2021/12/17 08:01:36;;;;;;;93.20;22.42;;;;;;;6.54;100.00;103986.69;5092350;28;20110;-85
2021/12/17 08:04:03;;;;;;;118.30;24.00;;;;;;;6.53;100.00;103979.72;5093738;28;20028;-85
2021/12/17 08:06:28;;;;;;;105.22;21.75;;;;;;;6.53;100.00;103977.13;5093526;28;20108;-85
2021/12/17 08:08:53;;;;;;;91.95;21.80;;;;;;;6.56;100.00;103987.63;5092609;28;20051;-85
2021/12/17 08:11:19;;;;;;;106.30;21.65;;;;;;;6.58;100.00;103987.69;5093405;28;20027;-84
2021/12/17 08:13:46;;;;;;;98.90;21.45;;;;;;;6.59;100.00;103984.28;5098179;28;20031;-84
2021/12/17 08:18:50;;;;;;;99.22;21.65;;;;;;;6.59;100.00;103971.31;5113414;28;20028;-84
2021/12/17 08:31:53;;;;;;;101.18;22.58;;;;;;;6.66;100.00;104004.47;5113480;28;20102;-85
2021/12/17 08:34:19;;;;;;;103.22;22.50;;;;;;;6.62;100.00;104007.75;5112373;28;20103;-85
2021/12/17 08:36:44;;;;;;;114.03;22.73;;;;;;;6.68;100.00;104010.59;5091968;28;20106;-85
2021/12/17 08:39:10;;;;;;;108.93;24.70;;;;;;;6.65;100.00;104010.47;5093098;28;20387;-85
2021/12/17 08:41:36;;;;;;;122.30;25.80;;;;;;;6.66;100.00;104013.94;5092874;28;20044;-85
2021/12/17 08:44:01;;;;;;;108.65;24.90;;;;;;;6.68;100.00;104017.50;5092253;28;20086;-84
2021/12/17 08:46:27;;;;;;;112.88;28.92;;;;;;;6.67;100.00;104016.63;5092707;28;20031;-84
2021/12/17 08:48:52;;;;;;;123.45;31.65;;;;;;;6.68;100.00;104017.50;5092463;28;20055;-85
2021/12/17 08:51:18;;;;;;;107.32;30.17;;;;;;;6.68;100.00;104013.19;5110239;28;20027;-85
2021/12/17 08:53:43;;;;;;;103.28;30.67;;;;;;;6.67;100.00;104008.84;5112722;28;20354;-85
2021/12/17 08:56:09;;;;;;;111.25;31.58;;;;;;;6.70;100.00;104002.88;5113203;28;20020;-85
2021/12/17 08:58:35;;;;;;;100.30;32.50;;;;;;;6.72;100.00;104003.84;5112031;27;20055;-85
2021/12/17 09:01:03;;;;;;;96.50;32.85;;;;;;;6.73;100.00;104006.50;5112785;28;20024;-85
2021/12/17 09:03:29;;;;;;;93.57;33.65;;;;;;;6.71;100.00;104004.69;5112768;28;20024;-85
2021/12/17 09:05:55;;;;;;;91.78;33.28;;;;;;;6.71;100.00;104005.56;5110730;28;20016;-85
2021/12/17 09:08:21;;;;;;;97.90;33.50;;;;;;;6.74;100.00;104010.88;5111265;28;20407;-85
2021/12/17 09:10:48;;;;;;;96.47;34.72;;;;;;;6.75;100.00;104003.97;5112402;28;20020;-85
2021/12/17 09:13:13;;;;;;;94.22;34.20;;;;;;;6.75;100.00;104006.56;5112088;28;20034;-85
2021/12/17 09:15:39;;;;;;;86.95;32.45;;;;;;;6.75;100.00;104015.22;5112230;28;20019;-85
2021/12/17 09:18:04;;;;;;;96.85;34.00;;;;;;;6.79;100.00;104022.31;5112392;28;20023;-85
2021/12/17 09:20:30;;;;;;;88.47;33.33;;;;;;;6.77;100.00;104026.56;5111813;28;20046;-85
2021/12/17 09:22:55;;;;;;;83.85;32.85;;;;;;;6.79;100.00;104024.91;5111469;28;20390;-85
2021/12/17 09:25:20;;;;;;;100.10;35.22;;;;;;;6.83;100.00;104036.28;5108604;28;20027;-85
2021/12/17 09:27:46;;;;;;;97.68;34.92;;;;;;;6.83;100.00;104036.28;5111928;28;20048;-85
2021/12/17 09:30:15;;;;;;;88.40;32.63;;;;;;;6.80;100.00;104041.34;5109417;28;20092;-85
2021/12/17 09:32:41;;;;;;;94.10;33.05;;;;;;;6.84;100.00;104043.28;5110332;28;20020;-85
2021/12/17 09:35:07;;;;;;;95.10;34.08;;;;;;;6.85;100.00;104049.34;5112619;28;20026;-84
2021/12/17 09:37:33;;;;;;;87.78;33.20;;;;;;;6.78;100.00;104041.28;5112367;28;20360;-85
2021/12/17 09:39:58;;;;;;;93.32;33.90;;;;;;;6.85;100.00;104051.94;5111420;28;20033;-85
2021/12/17 09:42:24;;;;;;;92.65;32.60;;;;;;;6.81;100.00;104043.16;5112435;28;20030;-85
2021/12/17 09:44:50;;;;;;;97.35;32.85;;;;;;;6.86;100.00;104048.50;5110284;28;20055;-85
2021/12/17 09:47:16;;;;;;;95.03;33.30;;;;;;;6.87;100.00;104048.59;5111433;28;20059;-85
2021/12/17 09:49:42;;;;;;;99.38;33.72;;;;;;;6.91;100.00;104052.22;5109818;28;20051;-85
2021/12/17 09:52:07;;;;;;;91.45;33.80;;;;;;;6.92;100.00;104057.44;5112257;28;20056;-85
2021/12/17 09:54:33;;;;;;;94.68;32.70;;;;;;;6.89;100.00;104051.25;5111280;28;20463;-85
2021/12/17 09:56:58;;;;;;;96.18;31.70;;;;;;;6.96;100.00;104069.72;5111844;28;20031;-85
2021/12/17 09:59:23;;;;;;;99.32;33.40;;;;;;;6.98;100.00;104073.28;5112223;28;20493;-86
2021/12/17 10:01:49;;;;;;;94.00;33.20;;;;;;;6.97;100.00;104066.31;5110902;28;20072;-85
2021/12/17 10:04:33;;;;;;;96.32;33.20;;;;;;;6.98;100.00;104069.81;5111181;28;20024;-86
2021/12/17 10:07:20;;;;;;;96.13;32.95;;;;;;;6.99;100.00;104077.63;5098765;28;20024;-85
2021/12/17 10:09:48;;;;;;;90.93;31.45;;;;;;;6.98;100.00;104068.09;5080243;28;20131;-85
2021/12/17 10:12:13;;;;;;;90.43;31.95;;;;;;;6.97;100.00;104063.72;5091541;28;20086;-85
2021/12/17 10:14:41;;;;;;;89.85;31.30;;;;;;;6.98;100.00;104073.28;5090624;28;20464;-85
2021/12/17 10:17:11;;;;;;;82.10;29.60;;;;;;;7.01;100.00;104076.00;5091564;28;20472;-85
2021/12/17 10:19:45;;;;;;;79.50;30.35;;;;;;;7.04;100.00;104067.47;5105795;28;20160;-85
2021/12/17 10:22:12;;;;;;;93.90;31.13;;;;;;;7.04;100.00;104070.06;5111130;28;20024;-85
2021/12/17 10:24:43;;;;;;;84.07;31.20;;;;;;;7.06;100.00;104078.78;5111367;28;20031;-86
2021/12/17 10:27:20;;;;;;;87.45;29.30;;;;;;;7.09;100.00;104078.91;5111648;28;20074;-85
2021/12/17 10:29:45;;;;;;;86.05;29.00;;;;;;;7.09;100.00;104076.31;5110812;28;20477;-85
2021/12/17 10:32:19;;;;;;;83.57;29.23;;;;;;;7.11;100.00;104072.09;5109724;28;20022;-86
2021/12/17 10:35:13;;;;;;;81.30;26.00;;;;;;;7.13;100.00;104078.25;5111403;28;20031;-85
2021/12/17 10:37:41;;;;;;;;;;;;;;;7.17;100.00;104080.16;5111039;28;20421;-85
2021/12/17 10:40:29;;;;;;;76.38;26.02;;;;;;;7.15;100.00;104079.19;5111813;28;19919;-85
2021/12/17 10:43:04;;;;;;;74.82;23.98;;;;;;;7.17;100.00;104079.25;5110478;28;20037;-86
2021/12/17 10:45:34;;;;;;;77.15;24.25;;;;;;;7.18;100.00;104075.84;5115420;28;20028;-85
2021/12/17 10:54:04;;;;;;;60.47;20.35;;;;;;;7.23;100.00;104077.81;5091179;28;20042;-85
2021/12/17 10:56:38;;;;;;;58.92;18.42;;;;;;;7.24;100.00;104076.09;5115422;28;20024;-86
2021/12/17 10:59:11;;;;;;;;;;;;;;;7.30;100.00;104070.28;5115911;28;20035;-85
2021/12/17 11:01:41;;;;;;;54.78;17.15;;;;;;;7.28;100.00;104078.00;5113862;28;19923;-85
2021/12/17 11:04:13;;;;;;;57.42;16.75;;;;;;;7.30;100.00;104071.16;5114613;28;20015;-85
2021/12/17 11:06:56;;;;;;;57.22;18.02;;;;;;;7.35;100.00;104080.00;5114987;28;20027;-84
2021/12/17 11:09:34;;;;;;;55.03;18.42;;;;;;;7.40;100.00;104081.09;5115355;28;20031;-85
2021/12/17 11:12:02;;;;;;;55.65;18.75;;;;;;;7.35;100.00;104072.22;5114216;28;20035;-85
2021/12/17 11:14:28;;;;;;;62.72;20.90;;;;;;;7.37;100.00;104069.72;5114841;28;20026;-84
2021/12/17 11:16:54;;;;;;;72.90;20.73;;;;;;;7.39;100.00;104065.44;5113419;27;20499;-85
2021/12/17 11:19:20;;;;;;;61.15;19.55;;;;;;;7.40;100.00;104064.66;5114507;27;20074;-85
2021/12/17 11:21:45;;;;;;;51.63;17.95;;;;;;;7.43;100.00;104068.25;5114529;28;20363;-85
2021/12/17 11:24:10;;;;;;;50.75;17.27;;;;;;;7.43;100.00;104062.19;5112882;28;20102;-85
2021/12/17 11:26:36;;;;;;;55.55;17.98;;;;;;;7.43;100.00;104069.97;5113638;28;20040;-85
2021/12/17 11:29:03;;;;;;;59.55;19.00;;;;;;;7.45;100.00;104065.69;5114748;28;20479;-85
2021/12/17 11:31:31;;;;;;;63.78;18.83;;;;;;;7.41;100.00;104058.63;5114485;28;20459;-85
2021/12/17 11:33:59;;;;;;;49.72;19.63;;;;;;;7.39;100.00;104045.59;5113694;28;20023;-85
2021/12/17 11:36:24;;;;;;;62.78;19.42;;;;;;;7.44;100.00;104045.78;5114597;28;20410;-85
2021/12/17 11:39:02;;;;;;;58.20;19.73;;;;;;;7.45;100.00;104052.72;5109977;28;20023;-85
2021/12/17 11:41:45;;;;;;;58.28;18.52;;;;;;;7.44;100.00;104045.78;5114337;28;20516;-85
2021/12/17 11:44:12;;;;;;;51.73;18.37;;;;;;;7.42;100.00;104037.94;5114733;28;20016;-85
2021/12/17 11:46:38;;;;;;;51.97;17.63;;;;;;;7.45;100.00;104043.22;5113188;28;20124;-85
2021/12/17 11:49:09;;;;;;;55.22;17.10;;;;;;;7.45;100.00;104035.44;5114318;28;20104;-85
2021/12/17 11:51:35;;;;;;;44.50;16.10;;;;;;;7.46;100.00;104036.34;5114127;28;20399;-85
2021/12/17 11:54:08;;;;;;;55.50;16.95;;;;;;;7.49;100.00;104036.47;5111654;28;20024;-85
2021/12/17 11:56:53;;;;;;;52.63;17.25;;;;;;;7.51;100.00;104027.00;5113233;28;20027;-85
2021/12/17 11:59:24;;;;;;;48.40;16.40;;;;;;;7.54;100.00;104024.53;5114316;28;20035;-85
2021/12/17 12:02:02;;;;;;;50.42;17.17;;;;;;;7.56;100.00;104028.09;5113364;28;20028;-85
2021/12/17 12:04:30;;;;;;;47.17;16.15;;;;;;;7.55;100.00;104021.13;5113860;28;20024;-84
2021/12/17 12:07:10;;;;;;;45.90;17.38;;;;;;;7.54;100.00;104019.34;5111227;28;20035;-85
2021/12/17 12:10:04;;;;;;;48.33;17.17;;;;;;;7.55;100.00;104018.50;5113782;28;20535;-85
2021/12/17 12:12:40;;;;;;;49.72;18.40;;;;;;;7.54;100.00;104021.06;5105160;28;20383;-85
2021/12/17 12:17:58;;;;;;;47.20;17.17;;;;;;;7.63;100.00;104043.09;5113537;28;20059;-85
2021/12/17 12:20:49;;;;;;;44.83;17.38;;;;;;;7.63;100.00;104031.81;5113957;28;20068;-85
2021/12/17 12:23:17;;;;;;;37.38;15.90;;;;;;;7.63;100.00;104034.41;5110797;28;20416;-85
2021/12/17 12:25:46;;;;;;;40.72;16.13;;;;;;;7.61;100.00;104036.94;5093113;28;20028;-84
2021/12/17 12:28:14;;;;;;;42.30;17.48;;;;;;;7.58;100.00;104044.59;5092309;28;20483;-85
2021/12/17 12:30:43;;;;;;;44.15;16.05;;;;;;;7.56;100.00;104033.28;5092825;28;20102;-85
2021/12/17 12:33:10;;;;;;;40.75;15.82;;;;;;;7.57;100.00;104034.16;5092870;28;20329;-85
2021/12/17 12:35:36;;;;;;;42.20;17.33;;;;;;;7.59;100.00;104038.59;5092150;28;20467;-85
2021/12/17 12:38:13;;;;;;;45.95;16.40;;;;;;;7.56;100.00;104020.31;5092569;28;20034;-85
2021/12/17 12:40:45;;;;;;;44.13;15.52;;;;;;;7.60;100.00;104027.38;5111973;28;20235;-85
2021/12/17 12:43:31;;;;;;;37.33;16.55;;;;;;;7.64;100.00;104020.59;5110738;28;20015;-85
2021/12/17 12:45:57;;;;;;;42.53;16.00;;;;;;;7.61;100.00;104018.75;5113022;28;20094;-85
2021/12/17 12:48:38;;;;;;;40.33;15.98;;;;;;;7.64;100.00;104013.69;5113291;27;20036;-85
2021/12/17 12:51:17;;;;;;;32.45;15.90;;;;;;;7.64;100.00;104016.28;5112736;27;20023;-84
2021/12/17 12:54:00;;;;;;;34.50;14.80;;;;;;;7.61;100.00;104017.88;5112910;28;20043;-85
2021/12/17 12:56:26;;;;;;;36.80;15.50;;;;;;;7.55;100.00;104020.22;5112194;28;20111;-85
2021/12/17 12:58:53;;;;;;;34.60;15.93;;;;;;;7.52;100.00;104015.84;5099818;28;20454;-85
2021/12/17 13:01:20;;;;;;;33.55;14.60;;;;;;;7.45;100.00;104006.88;5092859;28;20032;-85
2021/12/17 13:03:48;;;;;;;34.17;17.98;;;;;;;7.48;100.00;104024.28;5091252;28;20020;-85
2021/12/17 13:06:17;;;;;;;32.38;15.98;;;;;;;7.42;100.00;104013.66;5092598;28;20111;-85
2021/12/17 13:08:42;;;;;;;36.40;16.23;;;;;;;7.43;100.00;104026.72;5092039;28;20123;-85
2021/12/17 13:11:08;;;;;;;32.85;16.63;;;;;;;7.44;100.00;104025.00;5091620;28;20099;-85
2021/12/17 13:14:03;;;;;;;36.65;16.30;;;;;;;7.44;100.00;104027.59;5101331;28;20107;-85
2021/12/17 13:24:25;;;;;;;32.17;14.55;;;;;;;7.30;100.00;104018.38;5112052;28;20429;-86
2021/12/17 13:27:09;;;;;;;35.08;15.73;;;;;;;7.32;100.00;104024.50;5112331;28;20504;-86
2021/12/17 13:29:38;;;;;;;33.20;15.55;;;;;;;7.28;100.00;104023.50;5111088;28;20031;-85
2021/12/17 13:32:14;;;;;;;34.20;16.70;;;;;;;7.27;100.00;104020.00;5111900;28;20106;-86
2021/12/17 13:34:49;;;;;;;30.90;14.30;;;;;;;7.26;100.00;104013.06;5110549;28;20110;-85
2021/12/17 13:37:25;;;;;;;29.52;14.32;;;;;;;7.28;100.00;104016.59;5112547;28;20034;-85
2021/12/17 13:40:04;;;;;;;27.08;12.70;;;;;;;7.27;100.00;104012.22;5111503;28;20046;-85
2021/12/17 13:42:33;;;;;;;21.45;10.93;;;;;;;7.23;100.00;104015.53;5112140;28;20038;-85
2021/12/17 13:45:13;;;;;;;21.70;10.95;;;;;;;7.26;100.00;104013.06;5112229;28;20027;-85
2021/12/17 13:47:47;;;;;;;17.80;10.02;;;;;;;7.23;100.00;104018.13;5109413;28;20471;-85
2021/12/17 13:50:46;;;;;;;16.30;9.43;;;;;;;7.27;100.00;104009.63;5092078;28;20542;-85
2021/12/17 13:53:15;;;;;;;17.30;9.73;;;;;;;7.23;100.00;104007.75;5057616;28;20032;-86
2021/12/17 13:55:45;;;;;;;16.80;9.60;;;;;;;7.24;100.00;104012.09;5091546;28;20161;-85
2021/12/17 13:58:16;;;;;;;16.73;9.82;;;;;;;7.22;100.00;104016.31;5091876;28;20032;-86
2021/12/17 14:00:46;;;;;;;20.30;9.38;;;;;;;7.22;100.00;104021.53;5090656;28;20024;-85
2021/12/17 14:03:14;;;;;;;15.00;9.57;;;;;;;7.19;100.00;104016.22;5098626;28;20109;-86
2021/12/17 14:05:40;;;;;;;17.08;9.02;;;;;;;7.19;100.00;104021.44;5109957;28;20118;-85
2021/12/17 14:08:12;;;;;;;13.93;8.70;;;;;;;7.18;100.00;104027.41;5111211;28;20497;-85
2021/12/17 14:10:38;;;;;;;11.25;7.03;;;;;;;7.15;100.00;104024.69;5111645;28;20471;-86
2021/12/17 14:13:05;;;;;;;11.88;6.40;;;;;;;7.12;100.00;104029.75;5112054;28;20383;-85
2021/12/17 14:15:33;;;;;;;9.18;5.65;;;;;;;7.12;100.00;104019.38;5111186;28;20024;-85
2021/12/17 14:18:01;;;;;;;10.00;6.10;;;;;;;7.10;100.00;104028.81;5109307;28;20042;-85
2021/12/17 14:20:39;;;;;;;10.82;6.65;;;;;;;7.11;100.00;104025.41;5115551;28;20475;-85
2021/12/17 14:23:07;;;;;;;8.48;6.20;;;;;;;7.08;100.00;104026.97;5116085;28;20032;-84
2021/12/17 14:25:39;;;;;;;10.05;6.65;;;;;;;7.02;100.00;104012.03;5115896;28;20031;-85